createdAt,value
2019-04-14T00:02:03.191Z,9.76
2019-04-14T00:04:40.202Z,9.58
2019-04-14T00:07:12.351Z,9.61
2019-04-14T00:09:54.394Z,9.64
2019-04-14T00:12:27.624Z,9.58
2019-04-14T00:15:02.500Z,9.49
2019-04-14T00:17:34.894Z,9.62
2019-04-14T00:20:07.441Z,9.54
2019-04-14T00:22:42.484Z,9.60
2019-04-14T00:25:17.328Z,9.62
2019-04-14T00:27:52.113Z,9.61
2019-04-14T00:30:25.218Z,9.61
2019-04-14T00:33:02.126Z,9.49
2019-04-14T00:35:53.746Z,9.47
2019-04-14T00:38:32.576Z,9.46
2019-04-14T00:41:20.206Z,9.44
2019-04-14T00:44:09.927Z,9.37
2019-04-14T00:46:47.389Z,9.42
2019-04-14T00:49:20.018Z,9.47
2019-04-14T00:51:54.909Z,9.34
2019-04-14T00:54:28.254Z,9.33
2019-04-14T00:57:00.537Z,9.37
2019-04-14T00:59:33.403Z,9.44
2019-04-14T01:02:05.863Z,9.47
2019-04-14T01:04:38.294Z,9.46
2019-04-14T01:07:10.767Z,9.39
2019-04-14T01:09:41.574Z,9.60
2019-04-14T01:12:13.137Z,9.64
2019-04-14T01:14:45.275Z,9.65
2019-04-14T01:17:17.643Z,9.71
2019-04-14T01:19:48.814Z,9.72
2019-04-14T01:22:22.800Z,9.70
2019-04-14T01:24:55.324Z,9.68
2019-04-14T01:27:26.021Z,9.80
2019-04-14T01:30:00.345Z,9.81
2019-04-14T01:32:30.582Z,9.82
2019-04-14T01:35:01.134Z,9.73
2019-04-14T01:37:34.077Z,9.59
2019-04-14T01:40:05.491Z,9.63
2019-04-14T01:42:35.697Z,9.47
2019-04-14T01:45:08.519Z,9.70
2019-04-14T01:47:39.945Z,9.72
2019-04-14T01:50:10.744Z,9.80
2019-04-14T01:52:58.924Z,9.66
2019-04-14T01:55:54.870Z,9.81
2019-04-14T01:58:36.167Z,9.64
2019-04-14T02:01:15.178Z,9.61
2019-04-14T02:03:47.673Z,9.61
2019-04-14T02:06:20.073Z,9.66
2019-04-14T02:08:54.718Z,9.66
2019-04-14T02:11:27.540Z,9.74
2019-04-14T02:13:59.417Z,9.78
2019-04-14T02:16:39.230Z,9.66
2019-04-14T02:19:04.634Z,9.82
2019-04-14T02:21:38.895Z,9.69
2019-04-14T02:24:11.374Z,9.79
2019-04-14T02:26:47.966Z,9.78
2019-04-14T02:29:19.071Z,9.66
2019-04-14T02:32:21.462Z,9.77
2019-04-14T02:34:53.613Z,9.69
2019-04-14T02:37:26.633Z,9.70
2019-04-14T02:42:34.433Z,9.50
2019-04-14T02:45:00.074Z,9.57
2019-04-14T02:47:55.800Z,9.58
2019-04-14T02:50:19.126Z,9.52
2019-04-14T02:52:45.152Z,9.72
2019-04-14T02:55:10.873Z,9.70
2019-04-14T02:57:47.894Z,9.71
2019-04-14T03:02:51.483Z,9.73
2019-04-14T03:05:26.895Z,9.65
2019-04-14T03:08:04.138Z,9.62
2019-04-14T03:10:35.693Z,9.77
2019-04-14T03:13:13.451Z,9.79
2019-04-14T03:15:41.630Z,9.85
2019-04-14T03:18:38.226Z,9.72
2019-04-14T03:21:49.133Z,9.75
2019-04-14T03:24:27.371Z,9.78
2019-04-14T03:27:17.422Z,9.72
2019-04-14T03:29:43.289Z,9.77
2019-04-14T03:40:03.945Z,9.74
2019-04-14T03:42:37.606Z,9.71
2019-04-14T03:45:03.637Z,9.72
2019-04-14T03:47:34.128Z,9.60
2019-04-14T03:50:09.693Z,9.68
2019-04-14T03:52:53.352Z,9.80
2019-04-14T03:55:09.399Z,9.89
2019-04-14T03:57:27.888Z,9.89
2019-04-14T03:59:58.460Z,9.93
2019-04-14T04:02:29.806Z,9.90
2019-04-14T04:05:02.214Z,9.86
2019-04-14T04:07:34.846Z,9.80
2019-04-14T04:10:13.558Z,9.92
2019-04-14T04:12:46.528Z,9.84
2019-04-14T04:15:19.179Z,9.94
2019-04-14T04:18:02.684Z,9.97
2019-04-14T04:20:54.751Z,10.02
2019-04-14T04:23:43.104Z,10.01
2019-04-14T04:26:48.045Z,9.92
2019-04-14T04:29:26.583Z,9.92
2019-04-14T04:32:08.620Z,10.02
2019-04-14T04:34:53.906Z,10.08
2019-04-14T04:37:45.457Z,10.09
2019-04-14T04:40:24.703Z,9.99
2019-04-14T04:42:54.962Z,10.01
2019-04-14T04:45:27.794Z,10.07
2019-04-14T04:48:00.236Z,10.09
2019-04-14T04:50:32.395Z,10.17
2019-04-14T04:53:04.871Z,10.05
2019-04-14T04:55:35.952Z,10.17
2019-04-14T04:58:07.803Z,10.13
2019-04-14T05:00:39.899Z,10.11
2019-04-14T05:03:12.537Z,10.20
2019-04-14T05:06:20.902Z,10.27
2019-04-14T05:08:54.430Z,10.17
2019-04-14T05:11:33.765Z,10.06
2019-04-14T05:14:10.976Z,10.17
2019-04-14T05:16:42.520Z,10.16
2019-04-14T05:19:23.009Z,10.26
2019-04-14T05:21:47.300Z,10.32
2019-04-14T05:24:17.926Z,10.24
2019-04-14T05:26:48.705Z,10.29
2019-04-14T05:29:21.093Z,10.32
2019-04-14T05:31:53.330Z,10.28
2019-04-14T05:34:26.185Z,10.43
2019-04-14T05:36:58.847Z,10.32
2019-04-14T05:39:29.055Z,10.39
2019-04-14T05:42:06.569Z,10.48
2019-04-14T05:44:31.960Z,10.50
2019-04-14T05:47:02.420Z,10.57
2019-04-14T05:49:41.100Z,10.59
2019-04-14T05:52:07.772Z,10.56
2019-04-14T05:54:40.960Z,10.64
2019-04-14T05:57:11.298Z,10.70
2019-04-14T05:59:41.931Z,10.63
2019-04-14T06:02:13.675Z,10.73
2019-04-14T06:04:46.093Z,10.69
2019-04-14T06:07:17.061Z,10.75
2019-04-14T06:09:47.682Z,10.78
2019-04-14T06:12:17.927Z,10.75
2019-04-14T06:14:56.496Z,10.81
2019-04-14T06:17:27.868Z,10.89
2019-04-14T06:20:00.355Z,10.89
2019-04-14T06:22:32.887Z,10.93
2019-04-14T06:25:06.522Z,10.95
2019-04-14T06:27:38.338Z,10.92
2019-04-14T06:30:40.773Z,10.81
2019-04-14T06:33:27.320Z,10.91
2019-04-14T06:36:28.330Z,10.90
2019-04-14T06:39:08.006Z,11.14
2019-04-14T06:41:38.294Z,11.20
2019-04-14T06:44:09.038Z,11.26
2019-04-14T06:46:39.680Z,11.45
2019-04-14T06:49:10.897Z,11.41
2019-04-14T06:51:41.384Z,11.26
2019-04-14T06:54:11.583Z,11.49
2019-04-14T06:56:44.146Z,11.45
2019-04-14T06:59:14.333Z,11.47
2019-04-14T07:01:48.263Z,11.53
2019-04-14T07:04:19.177Z,11.51
2019-04-14T07:06:53.755Z,11.40
2019-04-14T07:09:23.968Z,10.99
2019-04-14T07:11:58.388Z,11.14
2019-04-14T07:14:31.759Z,11.26
2019-04-14T07:17:10.630Z,11.25
2019-04-14T07:19:41.714Z,11.37
2019-04-14T07:22:13.254Z,11.17
2019-04-14T07:24:50.803Z,11.40
2019-04-14T07:27:21.335Z,11.71
2019-04-14T07:30:15.001Z,11.76
2019-04-14T07:33:05.594Z,11.91
2019-04-14T07:35:56.170Z,12.02
2019-04-14T07:38:40.170Z,12.22
2019-04-14T07:41:33.217Z,12.25
2019-04-14T07:44:15.053Z,12.43
2019-04-14T07:47:11.715Z,12.41
2019-04-14T07:50:14.157Z,12.69
2019-04-14T07:52:53.067Z,12.37
2019-04-14T07:55:41.832Z,12.53
2019-04-14T07:58:32.649Z,12.67
2019-04-14T08:01:16.371Z,12.65
2019-04-14T08:04:10.530Z,12.66
2019-04-14T08:06:44.089Z,12.73
2019-04-14T08:09:14.708Z,12.98
2019-04-14T08:11:46.943Z,13.26
2019-04-14T08:14:19.854Z,13.23
2019-04-14T08:16:53.618Z,13.23
2019-04-14T08:19:25.271Z,13.46
2019-04-14T08:21:56.623Z,13.49
2019-04-14T08:24:27.703Z,13.87
2019-04-14T08:26:59.431Z,13.91
2019-04-14T08:29:31.718Z,13.89
2019-04-14T08:32:05.732Z,13.88
2019-04-14T08:34:38.061Z,13.82
2019-04-14T08:37:11.091Z,13.97
2019-04-14T08:39:42.856Z,13.92
2019-04-14T08:42:31.657Z,13.93
2019-04-14T08:45:09.648Z,13.77
2019-04-14T08:47:58.644Z,14.05
2019-04-14T08:50:39.599Z,14.03
2019-04-14T08:53:20.566Z,13.98
2019-04-14T08:56:08.612Z,14.15
2019-04-14T08:59:04.568Z,14.14
2019-04-14T09:01:58.644Z,14.17
2019-04-14T09:05:02.244Z,14.25
2019-04-14T09:07:54.994Z,13.43
2019-04-14T09:10:34.401Z,14.21
2019-04-14T09:13:05.050Z,14.36
2019-04-14T09:15:38.024Z,14.41
2019-04-14T09:18:10.822Z,14.82
2019-04-14T09:20:52.092Z,14.79
2019-04-14T09:23:19.441Z,14.58
2019-04-14T09:25:54.178Z,14.16
2019-04-14T09:28:29.572Z,14.58
2019-04-14T09:31:00.916Z,14.96
2019-04-14T09:33:35.458Z,14.88
2019-04-14T09:36:06.784Z,15.26
2019-04-14T09:38:37.824Z,15.24
2019-04-14T09:41:08.574Z,15.20
2019-04-14T09:43:40.741Z,15.19
2019-04-14T09:46:10.931Z,15.43
2019-04-14T09:48:43.065Z,15.71
2019-04-14T09:51:16.376Z,15.94
2019-04-14T09:53:48.945Z,15.87
2019-04-14T09:56:22.273Z,16.06
2019-04-14T09:58:52.609Z,15.97
2019-04-14T10:01:24.643Z,16.25
2019-04-14T10:03:55.122Z,16.44
2019-04-14T10:06:26.358Z,16.90
2019-04-14T10:09:00.846Z,17.30
2019-04-14T10:11:32.827Z,17.12
2019-04-14T10:14:03.149Z,17.11
2019-04-14T10:16:35.080Z,17.05
2019-04-14T10:19:05.506Z,16.89
2019-04-14T10:21:36.301Z,16.40
2019-04-14T10:24:08.429Z,16.81
2019-04-14T10:26:42.012Z,17.48
2019-04-14T10:29:16.153Z,17.72
2019-04-14T10:31:48.029Z,17.71
2019-04-14T10:34:18.709Z,18.28
2019-04-14T10:36:50.198Z,17.97
2019-04-14T10:39:22.496Z,18.24
2019-04-14T10:41:56.409Z,18.42
2019-04-14T10:44:31.458Z,18.12
2019-04-14T10:47:05.262Z,18.35
2019-04-14T10:49:38.779Z,18.36
2019-04-14T10:52:08.972Z,18.57
2019-04-14T10:54:42.960Z,18.51
2019-04-14T10:57:14.376Z,17.76
2019-04-14T10:59:47.264Z,17.88
2019-04-14T11:02:23.767Z,17.81
2019-04-14T11:04:54.335Z,15.49
2019-04-14T11:07:29.532Z,16.77
2019-04-14T11:10:01.540Z,17.50
2019-04-14T11:12:33.767Z,17.86
2019-04-14T11:15:06.558Z,16.99
2019-04-14T11:17:37.837Z,15.66
2019-04-14T11:20:09.949Z,16.76
2019-04-14T11:22:42.536Z,17.30
2019-04-14T11:25:14.267Z,17.35
2019-04-14T11:27:45.239Z,17.67
2019-04-14T11:30:20.144Z,17.97
2019-04-14T11:33:14.293Z,18.42
2019-04-14T11:35:54.946Z,18.86
2019-04-14T11:38:33.571Z,19.27
2019-04-14T11:41:13.698Z,19.84
2019-04-14T11:43:49.371Z,20.37
2019-04-14T11:46:20.473Z,20.72
2019-04-14T11:48:54.150Z,21.30
2019-04-14T11:51:28.499Z,21.42
2019-04-14T11:54:06.417Z,21.52
2019-04-14T11:56:41.886Z,21.31
2019-04-14T11:59:15.021Z,21.09
2019-04-14T12:02:07.394Z,21.09
2019-04-14T12:04:51.758Z,21.32
2019-04-14T12:07:48.689Z,21.71
2019-04-14T12:10:24.653Z,21.57
2019-04-14T12:13:11.488Z,21.40
2019-04-14T12:16:08.821Z,21.44
2019-04-14T12:22:16.204Z,21.91
2019-04-14T12:24:51.455Z,22.22
2019-04-14T12:27:28.453Z,21.98
2019-04-14T12:30:01.523Z,22.47
2019-04-14T12:32:39.387Z,23.07
2019-04-14T12:35:12.249Z,22.95
2019-04-14T12:37:47.655Z,23.13
2019-04-14T12:40:19.932Z,23.03
2019-04-14T12:43:09.908Z,23.41
2019-04-14T12:45:54.791Z,23.43
2019-04-14T12:48:46.373Z,23.66
2019-04-14T12:51:29.196Z,23.30
2019-04-14T12:54:04.167Z,23.13
2019-04-14T12:56:47.755Z,23.32
2019-04-14T12:59:23.351Z,23.52
2019-04-14T13:02:07.547Z,23.81
2019-04-14T13:04:38.194Z,23.62
2019-04-14T13:07:09.643Z,23.85
2019-04-14T13:09:50.834Z,24.40
2019-04-14T13:12:24.476Z,24.88
2019-04-14T13:14:57.604Z,25.50
2019-04-14T13:17:32.001Z,25.39
2019-04-14T13:20:06.224Z,25.91
2019-04-14T13:22:39.973Z,25.69
2019-04-14T13:25:12.231Z,26.11
2019-04-14T13:27:42.895Z,26.62
2019-04-14T13:30:17.188Z,27.06
2019-04-14T13:32:48.968Z,26.74
2019-04-14T13:35:21.262Z,26.96
2019-04-14T13:37:52.583Z,27.78
2019-04-14T13:40:34.712Z,28.15
2019-04-14T13:43:12.682Z,29.51
2019-04-14T13:45:50.618Z,30.04
2019-04-14T13:48:30.397Z,30.59
2019-04-14T13:51:20.923Z,31.21
2019-04-14T13:53:52.854Z,32.09
2019-04-14T13:56:24.008Z,32.09
2019-04-14T13:58:54.633Z,32.92
2019-04-14T14:01:28.854Z,31.00
2019-04-14T14:04:11.155Z,30.84
2019-04-14T14:06:58.749Z,29.79
2019-04-14T14:09:31.207Z,30.25
2019-04-14T14:12:16.631Z,29.78
2019-04-14T14:15:10.873Z,30.39
2019-04-14T14:18:06.051Z,30.76
2019-04-14T14:20:59.489Z,30.74
2019-04-14T14:23:58.208Z,31.92
2019-04-14T14:26:29.533Z,32.10
2019-04-14T14:29:04.139Z,31.20
2019-04-14T14:31:42.112Z,29.63
2019-04-14T14:34:16.313Z,28.85
2019-04-14T14:36:47.803Z,29.06
2019-04-14T14:39:21.463Z,28.96
2019-04-14T14:42:01.923Z,29.24
2019-04-14T14:44:43.312Z,28.97
2019-04-14T14:47:23.429Z,28.46
2019-04-14T14:50:24.988Z,28.37
2019-04-14T14:52:56.909Z,28.78
2019-04-14T14:55:27.599Z,28.49
2019-04-14T14:58:00.168Z,27.33
2019-04-14T15:00:36.520Z,26.91
2019-04-14T15:03:10.164Z,26.55
2019-04-14T15:05:42.949Z,26.23
2019-04-14T15:08:16.962Z,25.20
2019-04-14T15:10:52.380Z,25.29
2019-04-14T15:13:24.197Z,25.19
2019-04-14T15:15:57.778Z,25.31
2019-04-14T15:18:28.999Z,25.06
2019-04-14T15:21:02.403Z,25.51
2019-04-14T15:23:36.206Z,26.20
2019-04-14T15:26:08.460Z,27.12
2019-04-14T15:28:39.244Z,27.06
2019-04-14T15:31:11.143Z,26.06
2019-04-14T15:33:42.161Z,25.16
2019-04-14T15:36:13.218Z,23.94
2019-04-14T15:38:48.338Z,22.94
2019-04-14T15:41:23.194Z,22.83
2019-04-14T15:43:56.510Z,21.84
2019-04-14T15:46:30.119Z,21.84
2019-04-14T15:49:01.781Z,21.59
2019-04-14T15:51:32.851Z,21.23
2019-04-14T15:54:09.582Z,20.15
2019-04-14T15:56:59.714Z,20.15
2019-04-14T15:59:54.159Z,19.76
2019-04-14T16:02:46.468Z,19.28
2019-04-14T16:05:45.933Z,19.30
2019-04-14T16:08:24.561Z,19.12
2019-04-14T16:11:03.008Z,18.67
2019-04-14T16:13:40.168Z,18.78
2019-04-14T16:16:27.995Z,18.65
2019-04-14T16:19:14.389Z,18.71
2019-04-14T16:21:49.453Z,18.31
2019-04-14T16:24:26.097Z,18.30
2019-04-14T16:27:17.809Z,18.19
2019-04-14T16:29:59.737Z,18.26
2019-04-14T16:32:48.452Z,18.02
2019-04-14T16:35:22.265Z,17.77
2019-04-14T16:37:54.253Z,17.66
2019-04-14T16:40:25.790Z,17.48
2019-04-14T16:42:57.789Z,17.33
2019-04-14T16:45:29.407Z,17.32
2019-04-14T16:48:01.908Z,17.37
2019-04-14T16:50:39.759Z,17.39
2019-04-14T16:53:27.077Z,17.50
2019-04-14T16:56:14.885Z,16.94
2019-04-14T16:58:55.765Z,16.85
2019-04-14T17:04:21.565Z,16.88
2019-04-14T17:04:53.935Z,16.79
2019-04-14T17:07:43.488Z,16.67
2019-04-14T17:10:15.655Z,16.53
2019-04-14T17:13:13.573Z,16.77
2019-04-14T17:15:56.998Z,16.57
2019-04-14T17:18:52.344Z,16.45
2019-04-14T17:22:20.064Z,16.34
2019-04-14T17:25:08.900Z,16.22
2019-04-14T17:27:56.435Z,16.29
2019-04-14T17:30:49.227Z,16.05
2019-04-14T17:33:24.489Z,16.23
2019-04-14T17:36:30.442Z,16.03
2019-04-14T17:39:39.083Z,16.02
2019-04-14T17:46:01.301Z,15.79
2019-04-14T17:48:44.668Z,15.39
2019-04-14T17:51:27.072Z,15.59
2019-04-14T17:54:29.798Z,15.63
2019-04-14T17:57:23.468Z,15.61
2019-04-14T18:00:04.569Z,15.75
2019-04-14T18:02:48.251Z,15.62
2019-04-14T18:05:29.458Z,15.36
2019-04-14T18:08:08.050Z,15.35
2019-04-14T18:11:00.336Z,15.31
2019-04-14T18:13:52.016Z,15.10
2019-04-14T18:16:30.892Z,15.14
2019-04-14T18:19:21.113Z,15.12
2019-04-14T18:21:52.966Z,15.05
2019-04-14T18:24:23.171Z,15.02
2019-04-14T18:26:54.532Z,14.88
2019-04-14T18:29:50.871Z,14.60
2019-04-14T18:32:44.260Z,14.60
2019-04-14T18:35:34.656Z,14.59
2019-04-14T18:38:26.161Z,14.70
2019-04-14T18:41:04.469Z,14.64
2019-04-14T18:43:57.458Z,14.26
2019-04-14T18:46:47.228Z,14.45
2019-04-14T18:49:43.285Z,14.44
2019-04-14T18:52:39.359Z,14.44
2019-04-14T18:55:34.805Z,14.35
2019-04-14T18:58:31.815Z,14.63
2019-04-14T19:01:07.467Z,14.45
2019-04-14T19:03:38.982Z,14.38
2019-04-14T19:06:10.372Z,14.44
2019-04-14T19:08:44.469Z,14.10
2019-04-14T19:11:41.597Z,14.15
2019-04-14T19:14:16.390Z,14.31
2019-04-14T19:16:51.188Z,14.15
2019-04-14T19:19:22.663Z,14.34
2019-04-14T19:21:54.084Z,14.40
2019-04-14T19:24:24.314Z,14.31
2019-04-14T19:26:55.711Z,14.25
2019-04-14T19:29:27.846Z,14.01
2019-04-14T19:31:59.038Z,14.37
2019-04-14T19:34:30.604Z,14.24
2019-04-14T19:37:02.967Z,14.16
2019-04-14T19:39:35.851Z,14.09
2019-04-14T19:42:06.443Z,14.25
2019-04-14T19:44:38.786Z,14.27
2019-04-14T19:47:10.267Z,14.10
2019-04-14T19:49:41.512Z,14.13
2019-04-14T19:52:12.051Z,14.15
2019-04-14T19:54:44.396Z,14.03
2019-04-14T19:57:15.866Z,14.03
2019-04-14T20:00:04.590Z,13.94
2019-04-14T20:02:39.376Z,14.14
2019-04-14T20:05:15.855Z,13.92
2019-04-14T20:07:51.563Z,13.87
2019-04-14T20:10:23.788Z,14.04
2019-04-14T20:12:56.431Z,13.94
2019-04-14T20:15:31.831Z,13.88
2019-04-14T20:18:22.542Z,13.89
2019-04-14T20:21:19.811Z,13.92
2019-04-14T20:24:09.985Z,14.07
2019-04-14T20:27:05.243Z,13.81
2019-04-14T20:29:47.104Z,13.93
2019-04-14T20:32:23.750Z,13.93
2019-04-14T20:35:07.866Z,14.00
2019-04-14T20:37:38.700Z,13.94
2019-04-14T20:40:10.997Z,13.99
2019-04-14T20:42:43.935Z,13.94
2019-04-14T20:45:14.987Z,13.94
2019-04-14T20:47:47.315Z,13.99
2019-04-14T20:50:18.086Z,13.73
2019-04-14T20:52:49.036Z,13.91
2019-04-14T20:55:20.215Z,13.95
2019-04-14T20:57:50.845Z,13.96
2019-04-14T21:00:22.270Z,13.97
2019-04-14T21:03:30.986Z,13.82
2019-04-14T21:06:10.434Z,13.93
2019-04-14T21:08:59.387Z,13.86
2019-04-14T21:11:42.658Z,13.80
2019-04-14T21:14:31.234Z,13.85
2019-04-14T21:17:12.668Z,13.79
2019-04-14T21:20:00.701Z,13.76
2019-04-14T21:22:48.593Z,13.76
2019-04-14T21:25:41.608Z,13.78
2019-04-14T21:28:30.030Z,13.66
2019-04-14T21:31:19.176Z,13.61
2019-04-14T21:34:03.576Z,13.58
2019-04-14T21:36:39.537Z,13.67
2019-04-14T21:39:29.083Z,13.42
2019-04-14T21:41:59.378Z,13.58
2019-04-14T21:44:30.156Z,13.55
2019-04-14T21:47:00.448Z,13.51
2019-04-14T21:49:32.518Z,13.55
2019-04-14T21:52:22.222Z,13.56
2019-04-14T21:54:53.706Z,13.46
2019-04-14T21:57:45.543Z,13.42
2019-04-14T22:00:40.195Z,13.38
2019-04-14T22:03:29.106Z,13.38
2019-04-14T22:06:17.762Z,13.32
2019-04-14T22:08:53.058Z,13.44
2019-04-14T22:11:25.128Z,13.36
2019-04-14T22:13:55.339Z,13.34
2019-04-14T22:16:26.862Z,13.34
2019-04-14T22:18:57.802Z,13.35
2019-04-14T22:21:29.489Z,13.41
2019-04-14T22:24:01.841Z,13.39
2019-04-14T22:26:31.658Z,13.30
2019-04-14T22:29:02.820Z,13.22
2019-04-14T22:31:33.758Z,13.22
2019-04-14T22:34:03.945Z,13.14
2019-04-14T22:36:34.146Z,13.20
2019-04-14T22:39:07.256Z,13.17
2019-04-14T22:41:40.550Z,13.10
2019-04-14T22:44:11.442Z,13.06
2019-04-14T22:46:42.904Z,13.13
2019-04-14T22:49:13.648Z,13.09
2019-04-14T22:51:44.142Z,13.09
2019-04-14T22:54:15.136Z,13.14
2019-04-14T22:56:47.717Z,13.19
2019-04-14T22:59:22.303Z,13.25
2019-04-14T23:02:00.990Z,13.31
2019-04-14T23:04:56.330Z,13.22
2019-04-14T23:07:54.898Z,13.22
2019-04-14T23:10:50.304Z,13.23
2019-04-14T23:13:26.438Z,13.29
2019-04-14T23:16:18.580Z,13.27
2019-04-14T23:18:57.022Z,13.18
2019-04-14T23:21:44.112Z,13.25
2019-04-14T23:24:31.428Z,13.23
2019-04-14T23:27:04.625Z,13.35
2019-04-14T23:29:36.831Z,13.31
2019-04-14T23:32:07.125Z,13.40
2019-04-14T23:34:37.813Z,13.37
2019-04-14T23:37:08.334Z,13.37
2019-04-14T23:39:39.809Z,13.45
2019-04-14T23:42:13.596Z,13.38
2019-04-14T23:44:43.761Z,13.43
2019-04-14T23:47:14.219Z,13.36
2019-04-14T23:49:44.488Z,13.28
2019-04-14T23:52:16.378Z,13.43
2019-04-14T23:54:47.603Z,13.42
2019-04-14T23:57:19.947Z,13.39
2019-04-14T23:59:51.396Z,13.43
